Huvudsida
METAR-TAF:

METAR-TAF

Flygplatser :

Bagdads internationella flygplats

Bagdad, Irak

latitud: 33-15-45N, longitud: 44-14-04E, höjd: 35 m

Aktuellt väderrapport

Denna rapport gjordes för 1 timme och 12 minuter sedan, klockan 07:00 UTC
Vind 13 kt från syd/sydost
Temperatur 19°C
Fuktighet 46%
Tryck 1018 hPa
Sikt 10 km eller mer
Få moln på en höjd av 4200 ft

METAR: ORBI 220700Z 16013KT 9999 FEW042 19/07 Q1018 NOSIG

Tid: 11:12 (08:12 UTC)

Väderprognos

Denna rapport gjordes för 4 timmar och 12 minuter sedan, klockan 04:00 UTC
Prognos gäller från 22 kl. 06 UTC till 23 kl. 06 UTC
Vind 8 kt från ost/sydost
Sikt: 8000 m

TAF: ORBI 220400Z 2206/2306 12008KT 8000 NSC

Aktuella väderrapporter och prognoser från 4000 flygplatser (METAR- och TAF-rapporter).

De tillgängliga stationerna syns som gula och röda prickar på kartan.

För musen över prickarna för att se namnen på stationerna.

Klicka sedan för att få väderrapporter och prognoser.

För att ändra kartan: Klicka på de gröna knapparna med ett svart kors på för att zooma in; den gröna knappen med ett streck på för att zooma ut; eller på de gröna pilarna för angränsande kartor.


METAR-TAF: